Time;durP1;ratioP1;P1;durP2;ratioP2;P2;SDS_P1;SDS_P2;PMS_P1;PMS_P2;Temp;Humidity;BMP_temperature;BMP_pressure;BME280_temperature;BME280_humidity;BME280_pressure;Samples;Min_cycle;Max_cycle;Signal;HPM_P1;HPM_P2
2021/10/26 00:01:54;;;;;;;10.48;7.35;;;;;;;;;;4878365;29;20109;-66
2021/10/26 00:04:21;;;;;;;9.40;7.45;;;;;;;;;;4864862;29;20049;-66
2021/10/26 00:06:47;;;;;;;9.93;6.95;;;;;;;;;;4881317;29;20053;-66
2021/10/26 00:09:15;;;;;;;10.15;6.78;;;;;;;;;;4881406;29;20105;-66
2021/10/26 00:11:42;;;;;;;13.82;7.63;;;;;;;;;;4881137;29;20069;-66
2021/10/26 00:14:09;;;;;;;10.95;7.32;;;;;;;;;;4881239;29;20126;-65
2021/10/26 00:16:35;;;;;;;10.80;7.25;;;;;;;;;;4881158;29;20049;-66
2021/10/26 00:19:02;;;;;;;12.40;8.50;;;;;;;;;;4881468;29;20053;-66
2021/10/26 00:21:29;;;;;;;12.13;8.30;;;;;;;;;;4880886;29;20484;-66
2021/10/26 00:23:55;;;;;;;12.23;8.00;;;;;;;;;;4881007;29;20496;-66
2021/10/26 00:26:22;;;;;;;16.80;9.05;;;;;;;;;;4879739;29;20052;-67
2021/10/26 00:28:48;;;;;;;16.65;7.53;;;;;;;;;;4881030;29;20057;-67
2021/10/26 00:31:15;;;;;;;11.68;8.23;;;;;;;;;;4880865;29;20544;-66
2021/10/26 00:33:42;;;;;;;11.98;7.20;;;;;;;;;;4879689;29;20509;-66
2021/10/26 00:36:08;;;;;;;11.98;7.68;;;;;;;;;;4880686;29;20113;-67
2021/10/26 00:38:36;;;;;;;9.75;7.57;;;;;;;;;;4881204;29;20057;-67
2021/10/26 00:41:03;;;;;;;15.77;9.15;;;;;;;;;;4880706;29;20112;-67
2021/10/26 00:43:30;;;;;;;10.68;8.50;;;;;;;;;;4880290;29;20049;-66
2021/10/26 00:45:57;;;;;;;11.82;8.88;;;;;;;;;;4880713;29;20560;-67
2021/10/26 00:48:24;;;;;;;10.73;8.43;;;;;;;;;;4880536;29;20056;-66
2021/10/26 00:50:50;;;;;;;9.98;7.25;;;;;;;;;;4880550;29;20053;-66
2021/10/26 00:53:18;;;;;;;10.35;7.80;;;;;;;;;;4879084;29;20053;-67
2021/10/26 00:55:46;;;;;;;11.95;8.02;;;;;;;;;;4880592;29;20049;-67
2021/10/26 00:58:13;;;;;;;9.48;6.82;;;;;;;;;;4879196;29;20078;-67
2021/10/26 01:00:39;;;;;;;8.88;6.82;;;;;;;;;;4880354;29;20056;-67
2021/10/26 01:03:06;;;;;;;10.57;6.88;;;;;;;;;;4880294;29;20061;-66
2021/10/26 01:05:33;;;;;;;8.45;6.53;;;;;;;;;;4880244;29;20045;-67
2021/10/26 01:07:59;;;;;;;11.93;7.05;;;;;;;;;;4863783;29;20064;-67
2021/10/26 01:10:26;;;;;;;9.68;6.90;;;;;;;;;;4863633;29;20056;-66
2021/10/26 01:12:53;;;;;;;9.50;6.60;;;;;;;;;;4879618;29;20116;-66
2021/10/26 01:15:20;;;;;;;7.03;6.13;;;;;;;;;;4894030;29;20053;-66
2021/10/26 01:17:47;;;;;;;9.13;6.30;;;;;;;;;;4880072;29;20560;-66
2021/10/26 01:20:14;;;;;;;8.80;6.57;;;;;;;;;;4879827;29;20125;-67
2021/10/26 01:22:40;;;;;;;13.55;7.03;;;;;;;;;;4880043;29;20057;-66
2021/10/26 01:25:12;;;;;;;8.73;6.55;;;;;;;;;;4879984;29;20045;-66
2021/10/26 01:27:44;;;;;;;9.77;6.80;;;;;;;;;;4879865;29;20120;-67
2021/10/26 01:30:11;;;;;;;8.03;6.30;;;;;;;;;;4880020;29;20053;-66
2021/10/26 01:32:38;;;;;;;10.63;5.85;;;;;;;;;;4863102;29;20298;-67
2021/10/26 01:35:05;;;;;;;9.45;6.93;;;;;;;;;;4879980;29;20101;-68
2021/10/26 01:37:32;;;;;;;8.88;6.07;;;;;;;;;;4879744;29;20469;-67
2021/10/26 01:39:59;;;;;;;9.88;6.20;;;;;;;;;;4879825;29;20057;-66
2021/10/26 01:42:26;;;;;;;12.45;6.80;;;;;;;;;;4879458;29;20519;-67
2021/10/26 01:44:52;;;;;;;9.07;6.57;;;;;;;;;;4879744;29;20049;-67
2021/10/26 01:47:19;;;;;;;8.10;6.35;;;;;;;;;;4879538;29;20187;-66
2021/10/26 01:49:46;;;;;;;9.70;6.72;;;;;;;;;;4879605;29;20057;-67
2021/10/26 01:52:12;;;;;;;9.52;6.50;;;;;;;;;;4879148;29;20049;-67
2021/10/26 01:54:40;;;;;;;10.30;6.85;;;;;;;;;;4879351;29;20055;-66
2021/10/26 01:57:07;;;;;;;9.70;6.22;;;;;;;;;;4879383;29;20116;-67
2021/10/26 01:59:34;;;;;;;11.68;6.13;;;;;;;;;;4879272;29;20057;-66
2021/10/26 02:02:01;;;;;;;8.18;6.10;;;;;;;;;;4878929;29;20076;-67
2021/10/26 02:04:28;;;;;;;9.15;6.30;;;;;;;;;;4879137;29;20113;-66
2021/10/26 02:06:55;;;;;;;10.02;6.35;;;;;;;;;;4879331;29;20121;-67
2021/10/26 02:09:22;;;;;;;9.27;6.18;;;;;;;;;;4879132;29;20064;-67
2021/10/26 02:11:48;;;;;;;9.02;6.45;;;;;;;;;;4879145;29;20076;-67
2021/10/26 02:14:15;;;;;;;7.88;6.20;;;;;;;;;;4879022;29;20500;-67
2021/10/26 02:16:42;;;;;;;15.05;6.78;;;;;;;;;;4879377;29;20085;-67
2021/10/26 02:19:09;;;;;;;8.02;5.47;;;;;;;;;;4878861;29;20112;-67
2021/10/26 02:21:36;;;;;;;11.88;7.22;;;;;;;;;;4878992;29;20116;-66
2021/10/26 02:24:02;;;;;;;12.20;7.38;;;;;;;;;;4879085;29;20097;-67
2021/10/26 02:26:29;;;;;;;12.98;6.22;;;;;;;;;;4878576;29;20052;-67
2021/10/26 02:28:56;;;;;;;10.40;6.90;;;;;;;;;;4879113;29;20110;-67
2021/10/26 02:31:23;;;;;;;10.45;7.07;;;;;;;;;;4878681;29;20057;-67
2021/10/26 02:33:49;;;;;;;10.93;6.57;;;;;;;;;;4878561;29;20053;-66
2021/10/26 02:36:16;;;;;;;9.88;7.20;;;;;;;;;;4877208;29;20060;-67
2021/10/26 02:38:43;;;;;;;8.35;6.90;;;;;;;;;;4878776;29;20473;-66
2021/10/26 02:41:10;;;;;;;8.73;6.72;;;;;;;;;;4878376;29;20077;-67
2021/10/26 02:43:37;;;;;;;9.15;7.53;;;;;;;;;;4878626;29;20113;-67
2021/10/26 02:46:04;;;;;;;11.80;7.50;;;;;;;;;;4877290;29;20435;-67
2021/10/26 02:48:31;;;;;;;13.30;7.72;;;;;;;;;;4878557;29;20510;-67
2021/10/26 02:50:57;;;;;;;8.55;6.85;;;;;;;;;;4878604;29;20049;-67
2021/10/26 02:53:25;;;;;;;9.07;7.32;;;;;;;;;;4878240;29;20057;-67
2021/10/26 02:55:51;;;;;;;11.27;8.00;;;;;;;;;;4878333;29;20049;-67
2021/10/26 02:58:19;;;;;;;9.80;7.55;;;;;;;;;;4878499;29;20053;-67
2021/10/26 03:00:46;;;;;;;12.02;7.90;;;;;;;;;;4878573;29;20056;-67
2021/10/26 03:03:14;;;;;;;11.52;8.18;;;;;;;;;;4878205;29;20052;-68
2021/10/26 03:05:41;;;;;;;10.38;7.80;;;;;;;;;;4878329;29;20049;-67
2021/10/26 03:08:07;;;;;;;11.73;7.45;;;;;;;;;;4878338;29;20053;-66
2021/10/26 03:10:34;;;;;;;17.05;10.23;;;;;;;;;;4878161;29;20109;-67
2021/10/26 03:13:00;;;;;;;14.30;8.75;;;;;;;;;;4878139;29;20056;-67
2021/10/26 03:15:28;;;;;;;13.55;8.15;;;;;;;;;;4878312;29;20109;-66
2021/10/26 03:17:54;;;;;;;9.68;6.85;;;;;;;;;;4878201;29;20108;-67
2021/10/26 03:20:21;;;;;;;9.43;6.50;;;;;;;;;;4878129;29;20057;-67
2021/10/26 03:22:48;;;;;;;8.27;6.50;;;;;;;;;;4878018;29;20049;-67
2021/10/26 03:25:15;;;;;;;11.48;8.13;;;;;;;;;;4877984;29;20100;-67
2021/10/26 03:27:42;;;;;;;11.05;6.90;;;;;;;;;;4878031;29;20113;-67
2021/10/26 03:30:10;;;;;;;9.52;6.88;;;;;;;;;;4877041;29;20113;-66
2021/10/26 03:32:37;;;;;;;9.77;6.97;;;;;;;;;;4861583;29;20109;-67
2021/10/26 03:35:04;;;;;;;10.73;6.82;;;;;;;;;;4859804;29;20145;-66
2021/10/26 03:37:31;;;;;;;12.20;7.18;;;;;;;;;;4880663;29;20061;-68
2021/10/26 03:39:57;;;;;;;9.73;6.72;;;;;;;;;;4884535;29;20564;-68
2021/10/26 03:42:25;;;;;;;9.07;6.75;;;;;;;;;;4883596;29;20524;-66
2021/10/26 03:44:52;;;;;;;9.55;7.15;;;;;;;;;;4884102;29;20045;-66
2021/10/26 03:47:19;;;;;;;9.85;6.88;;;;;;;;;;4884052;29;20049;-67
2021/10/26 03:49:59;;;;;;;9.35;6.63;;;;;;;;;;4884551;29;20059;-67
2021/10/26 03:52:26;;;;;;;9.25;7.38;;;;;;;;;;4883808;29;20059;-67
2021/10/26 03:54:55;;;;;;;13.88;7.40;;;;;;;;;;4884125;29;20056;-67
2021/10/26 03:57:22;;;;;;;9.77;7.72;;;;;;;;;;4883819;29;20049;-67
2021/10/26 03:59:49;;;;;;;11.75;8.18;;;;;;;;;;4883279;29;20057;-67
2021/10/26 04:02:24;;;;;;;10.93;7.55;;;;;;;;;;4884028;29;20049;-67
2021/10/26 04:04:52;;;;;;;11.15;7.70;;;;;;;;;;4883908;29;20569;-66
2021/10/26 04:07:20;;;;;;;8.10;6.90;;;;;;;;;;4884133;29;20057;-67
2021/10/26 04:09:53;;;;;;;10.77;7.75;;;;;;;;;;4883635;29;20053;-66
2021/10/26 04:12:25;;;;;;;10.13;7.30;;;;;;;;;;4883697;29;20121;-66
2021/10/26 04:14:54;;;;;;;10.65;7.40;;;;;;;;;;4884141;29;20045;-67
2021/10/26 04:17:22;;;;;;;11.77;7.80;;;;;;;;;;4883750;29;20060;-66
2021/10/26 04:19:49;;;;;;;11.98;7.95;;;;;;;;;;4883958;29;20082;-66
2021/10/26 04:22:21;;;;;;;9.85;7.70;;;;;;;;;;4883766;29;20116;-67
2021/10/26 04:24:49;;;;;;;12.45;8.27;;;;;;;;;;4883563;29;20132;-66
2021/10/26 04:27:16;;;;;;;11.57;8.35;;;;;;;;;;4883832;29;20059;-66
2021/10/26 04:29:45;;;;;;;12.63;8.90;;;;;;;;;;4883847;29;20048;-67
2021/10/26 04:32:12;;;;;;;14.65;9.68;;;;;;;;;;4883587;29;20105;-68
2021/10/26 04:34:39;;;;;;;10.98;8.95;;;;;;;;;;4882609;29;20068;-66
2021/10/26 04:37:08;;;;;;;12.05;9.27;;;;;;;;;;4883806;29;20105;-66
2021/10/26 04:39:39;;;;;;;12.15;8.10;;;;;;;;;;4883747;29;20061;-68
2021/10/26 04:42:08;;;;;;;12.35;8.50;;;;;;;;;;4883464;29;20053;-66
2021/10/26 04:44:36;;;;;;;12.00;8.70;;;;;;;;;;4883619;29;20056;-67
2021/10/26 04:47:03;;;;;;;11.55;8.77;;;;;;;;;;4883797;29;20097;-67
2021/10/26 04:49:29;;;;;;;8.82;7.35;;;;;;;;;;4879773;29;20576;-66
2021/10/26 04:51:56;;;;;;;12.40;8.27;;;;;;;;;;4880633;29;20100;-67
2021/10/26 04:54:23;;;;;;;11.90;8.50;;;;;;;;;;4880552;29;20057;-67
2021/10/26 04:56:49;;;;;;;14.32;7.90;;;;;;;;;;4880599;29;20568;-67
2021/10/26 04:59:16;;;;;;;10.35;7.78;;;;;;;;;;4880578;29;20485;-66
2021/10/26 05:01:43;;;;;;;10.80;8.25;;;;;;;;;;4880554;29;20468;-67
2021/10/26 05:04:09;;;;;;;10.75;8.48;;;;;;;;;;4880555;29;20053;-67
2021/10/26 05:06:36;;;;;;;12.50;7.40;;;;;;;;;;4880251;29;20545;-67
2021/10/26 05:09:04;;;;;;;12.00;8.27;;;;;;;;;;4880300;29;20057;-67
2021/10/26 05:11:30;;;;;;;12.05;9.05;;;;;;;;;;4880161;29;20053;-67
2021/10/26 05:13:57;;;;;;;12.27;8.50;;;;;;;;;;4880504;29;20522;-68
2021/10/26 05:16:26;;;;;;;12.85;8.52;;;;;;;;;;4880182;29;20049;-68
2021/10/26 05:18:56;;;;;;;11.05;7.70;;;;;;;;;;4880426;29;20049;-67
2021/10/26 05:21:26;;;;;;;;;;;;;;;;;;4880317;29;20113;-66
2021/10/26 05:23:53;;;;;;;12.55;8.63;;;;;;;;;;4880287;29;20440;-66
2021/10/26 05:26:19;;;;;;;15.27;9.13;;;;;;;;;;4880019;29;20109;-66
2021/10/26 05:28:48;;;;;;;10.65;8.65;;;;;;;;;;4880268;29;20109;-67
2021/10/26 05:31:18;;;;;;;10.95;8.73;;;;;;;;;;4880037;29;20053;-66
2021/10/26 05:33:45;;;;;;;13.77;9.25;;;;;;;;;;4879877;29;20088;-66
2021/10/26 05:36:12;;;;;;;15.10;9.43;;;;;;;;;;4879985;29;20045;-67
2021/10/26 05:38:39;;;;;;;14.25;9.57;;;;;;;;;;4880582;29;20061;-67
2021/10/26 05:41:07;;;;;;;15.10;9.88;;;;;;;;;;4879936;29;20109;-67
2021/10/26 05:43:34;;;;;;;13.93;8.77;;;;;;;;;;4863075;29;20056;-67
2021/10/26 05:46:01;;;;;;;14.80;9.73;;;;;;;;;;4879787;29;20093;-67
2021/10/26 05:48:33;;;;;;;15.90;8.70;;;;;;;;;;4879738;29;20057;-67
2021/10/26 05:51:04;;;;;;;14.00;10.30;;;;;;;;;;4879541;29;20097;-67
2021/10/26 05:53:32;;;;;;;15.60;10.25;;;;;;;;;;4879227;29;20505;-67
2021/10/26 05:55:58;;;;;;;15.43;10.45;;;;;;;;;;4879610;29;20097;-67
2021/10/26 05:58:25;;;;;;;15.00;10.38;;;;;;;;;;4879382;29;20125;-68
2021/10/26 06:00:52;;;;;;;15.90;10.25;;;;;;;;;;4879060;29;20057;-67
2021/10/26 06:03:18;;;;;;;15.82;10.25;;;;;;;;;;4879272;29;20117;-67
2021/10/26 06:05:45;;;;;;;15.35;10.63;;;;;;;;;;4878097;29;20724;-73
2021/10/26 06:08:12;;;;;;;20.23;11.50;;;;;;;;;;4908599;29;20063;-74
2021/10/26 06:10:45;;;;;;;20.45;10.85;;;;;;;;;;4886828;29;20496;-74
2021/10/26 06:13:14;;;;;;;20.05;11.40;;;;;;;;;;4892448;29;20064;-74
2021/10/26 06:15:41;;;;;;;20.77;10.93;;;;;;;;;;4878201;29;20053;-73
2021/10/26 06:18:12;;;;;;;17.45;11.90;;;;;;;;;;4879064;29;20049;-71
2021/10/26 06:20:38;;;;;;;19.40;11.52;;;;;;;;;;4879127;29;20128;-72
2021/10/26 06:23:05;;;;;;;21.23;12.45;;;;;;;;;;4878939;29;20053;-72
2021/10/26 06:25:32;;;;;;;18.10;10.50;;;;;;;;;;4878844;29;20225;-72
2021/10/26 06:27:59;;;;;;;20.58;11.65;;;;;;;;;;4878919;29;20057;-72
2021/10/26 06:30:26;;;;;;;18.58;12.23;;;;;;;;;;4878871;29;20105;-72
2021/10/26 06:32:53;;;;;;;21.67;12.07;;;;;;;;;;4878818;29;20139;-72
2021/10/26 06:35:19;;;;;;;19.92;12.35;;;;;;;;;;4878815;29;20557;-72
2021/10/26 06:37:46;;;;;;;17.60;10.95;;;;;;;;;;4878947;29;20057;-72
2021/10/26 06:40:14;;;;;;;25.52;12.25;;;;;;;;;;4878756;29;20057;-72
2021/10/26 06:42:40;;;;;;;16.88;11.35;;;;;;;;;;4878752;29;20061;-74
2021/10/26 06:45:08;;;;;;;19.95;12.00;;;;;;;;;;4877482;29;20055;-67
2021/10/26 06:47:35;;;;;;;17.33;11.40;;;;;;;;;;4878575;29;20120;-67
2021/10/26 06:50:03;;;;;;;20.77;12.32;;;;;;;;;;4878749;29;20097;-67
2021/10/26 06:52:30;;;;;;;19.60;12.27;;;;;;;;;;4878480;29;20466;-66
2021/10/26 06:54:57;;;;;;;20.13;11.80;;;;;;;;;;4877056;29;20052;-66
2021/10/26 06:57:24;;;;;;;17.20;11.30;;;;;;;;;;4876723;29;20109;-66
2021/10/26 06:59:51;;;;;;;19.40;11.35;;;;;;;;;;4876835;29;20049;-66
2021/10/26 07:02:18;;;;;;;16.05;11.30;;;;;;;;;;4876484;29;20049;-66
2021/10/26 07:04:46;;;;;;;19.30;11.13;;;;;;;;;;4876881;29;20124;-66
2021/10/26 07:07:12;;;;;;;15.00;10.48;;;;;;;;;;4875954;29;20064;-67
2021/10/26 07:09:39;;;;;;;17.20;11.52;;;;;;;;;;4876677;29;20049;-66
2021/10/26 07:12:06;;;;;;;15.05;11.05;;;;;;;;;;4875560;29;20049;-66
2021/10/26 07:14:32;;;;;;;16.73;10.75;;;;;;;;;;4876529;29;20116;-67
2021/10/26 07:16:59;;;;;;;13.40;10.05;;;;;;;;;;4876425;29;20481;-66
2021/10/26 07:19:26;;;;;;;15.63;10.35;;;;;;;;;;4876203;29;20052;-66
2021/10/26 07:21:52;;;;;;;15.80;10.20;;;;;;;;;;4876094;29;20105;-66
2021/10/26 07:24:20;;;;;;;19.02;11.43;;;;;;;;;;4876545;29;20477;-66
2021/10/26 07:26:46;;;;;;;24.42;11.27;;;;;;;;;;4876490;29;20109;-66
2021/10/26 07:29:13;;;;;;;15.55;10.93;;;;;;;;;;4876478;29;20073;-66
2021/10/26 07:31:40;;;;;;;19.23;11.93;;;;;;;;;;4876323;29;20063;-66
2021/10/26 07:34:06;;;;;;;16.75;11.82;;;;;;;;;;4875936;29;20113;-66
2021/10/26 07:36:43;;;;;;;16.50;11.65;;;;;;;;;;4876469;29;20045;-66
2021/10/26 07:39:30;;;;;;;19.58;12.63;;;;;;;;;;4876291;29;20113;-66
2021/10/26 07:41:59;;;;;;;18.42;11.55;;;;;;;;;;4876415;29;20130;-66
2021/10/26 07:44:28;;;;;;;19.98;11.82;;;;;;;;;;4876230;29;20516;-66
2021/10/26 07:46:59;;;;;;;20.60;12.90;;;;;;;;;;4875932;29;20208;-66
2021/10/26 07:49:27;;;;;;;18.50;13.20;;;;;;;;;;4876408;29;20481;-66
2021/10/26 07:51:55;;;;;;;20.23;13.15;;;;;;;;;;4876181;29;20057;-66
2021/10/26 07:54:21;;;;;;;19.65;13.45;;;;;;;;;;4875900;29;20057;-66
2021/10/26 07:57:03;;;;;;;21.13;12.85;;;;;;;;;;4876239;29;20053;-66
2021/10/26 07:59:30;;;;;;;18.25;12.15;;;;;;;;;;4863939;29;20057;-66
2021/10/26 08:01:57;;;;;;;15.02;11.07;;;;;;;;;;4870077;29;20106;-67
2021/10/26 08:04:25;;;;;;;15.70;10.68;;;;;;;;;;4861414;29;20105;-66
2021/10/26 08:06:51;;;;;;;18.88;11.32;;;;;;;;;;4868279;29;20051;-66
2021/10/26 08:09:18;;;;;;;17.42;11.05;;;;;;;;;;4862685;29;20501;-69
2021/10/26 08:11:45;;;;;;;13.93;10.98;;;;;;;;;;4865508;29;20771;-67
2021/10/26 08:14:12;;;;;;;14.63;10.85;;;;;;;;;;4861655;29;20064;-67
2021/10/26 08:16:39;;;;;;;16.60;10.90;;;;;;;;;;4865348;29;20054;-67
2021/10/26 08:19:06;;;;;;;12.43;10.40;;;;;;;;;;4865187;29;20053;-67
2021/10/26 08:21:33;;;;;;;13.88;10.20;;;;;;;;;;4866606;29;20117;-67
2021/10/26 08:24:00;;;;;;;12.73;10.02;;;;;;;;;;4870185;29;20057;-68
2021/10/26 08:26:36;;;;;;;12.65;9.85;;;;;;;;;;4869553;29;20109;-67
2021/10/26 08:29:16;;;;;;;13.50;10.15;;;;;;;;;;4880771;29;20061;-65
2021/10/26 08:32:12;;;;;;;13.82;10.40;;;;;;;;;;4866676;29;20085;-67
2021/10/26 08:37:12;;;;;;;13.73;10.57;;;;;;;;;;4870849;29;20049;-67
2021/10/26 08:39:41;;;;;;;12.98;9.27;;;;;;;;;;4870309;29;20058;-67
2021/10/26 08:42:13;;;;;;;16.33;11.32;;;;;;;;;;4872973;29;20056;-67
2021/10/26 08:44:41;;;;;;;12.48;9.85;;;;;;;;;;4864499;29;20121;-67
2021/10/26 08:47:08;;;;;;;15.45;10.73;;;;;;;;;;4873824;29;20045;-73
2021/10/26 08:49:35;;;;;;;16.42;11.05;;;;;;;;;;4860407;29;20072;-74
2021/10/26 08:52:09;;;;;;;15.45;11.40;;;;;;;;;;4878828;29;20080;-74
2021/10/26 08:54:36;;;;;;;17.33;11.55;;;;;;;;;;4870265;29;20065;-73
2021/10/26 08:57:03;;;;;;;16.33;11.63;;;;;;;;;;4867520;29;20105;-66
2021/10/26 08:59:30;;;;;;;14.13;10.10;;;;;;;;;;4871444;29;20053;-66
2021/10/26 09:01:59;;;;;;;16.05;10.35;;;;;;;;;;4873005;29;20125;-66
2021/10/26 09:04:31;;;;;;;12.63;9.88;;;;;;;;;;4870942;29;20053;-70
2021/10/26 09:07:05;;;;;;;16.23;11.02;;;;;;;;;;4861715;29;20045;-71
2021/10/26 09:09:36;;;;;;;12.50;9.25;;;;;;;;;;4869715;29;20063;-73
2021/10/26 09:18:11;;;;;;;;;;;;;;;;;;4863730;29;20058;-73
2021/10/26 09:20:38;;;;;;;14.60;9.52;;;;;;;;;;4867218;29;19928;-72
2021/10/26 09:23:16;;;;;;;11.07;8.48;;;;;;;;;;4882781;29;20501;-71
2021/10/26 09:25:47;;;;;;;12.60;9.00;;;;;;;;;;4858910;29;20108;-76
2021/10/26 09:28:18;;;;;;;14.35;9.35;;;;;;;;;;4876487;29;20564;-70
2021/10/26 09:31:08;;;;;;;12.65;8.05;;;;;;;;;;4871441;29;20088;-71
2021/10/26 09:33:40;;;;;;;9.50;8.18;;;;;;;;;;4868164;29;20493;-72
2021/10/26 09:36:40;;;;;;;15.07;9.77;;;;;;;;;;4870739;29;20429;-73
2021/10/26 09:39:10;;;;;;;17.38;9.75;;;;;;;;;;4875852;29;20569;-73
2021/10/26 09:41:52;;;;;;;11.93;8.00;;;;;;;;;;4862213;29;20065;-74
2021/10/26 09:44:24;;;;;;;9.50;6.22;;;;;;;;;;4872175;29;20406;-72
2021/10/26 09:46:56;;;;;;;8.45;7.05;;;;;;;;;;4868667;29;20414;-73
2021/10/26 09:49:25;;;;;;;11.57;7.80;;;;;;;;;;4869922;29;20053;-71
2021/10/26 09:52:31;;;;;;;7.50;6.05;;;;;;;;;;4865470;29;20077;-71
2021/10/26 09:55:22;;;;;;;12.40;6.82;;;;;;;;;;4857575;29;20429;-69
2021/10/26 09:57:56;;;;;;;8.38;6.95;;;;;;;;;;4865893;29;20497;-69
2021/10/26 10:00:30;;;;;;;9.90;6.60;;;;;;;;;;4869213;29;20505;-72
2021/10/26 10:03:10;;;;;;;8.60;6.97;;;;;;;;;;4871443;29;20045;-71
2021/10/26 10:05:53;;;;;;;9.35;6.03;;;;;;;;;;4867728;29;20089;-71
2021/10/26 10:08:34;;;;;;;8.75;6.22;;;;;;;;;;4865686;29;20141;-69
2021/10/26 10:11:15;;;;;;;9.32;5.80;;;;;;;;;;4873591;29;20105;-73
2021/10/26 10:13:43;;;;;;;11.52;6.13;;;;;;;;;;4871115;29;20109;-71
2021/10/26 10:16:13;;;;;;;9.98;6.32;;;;;;;;;;4866061;29;20060;-73
2021/10/26 10:18:44;;;;;;;7.90;5.45;;;;;;;;;;4867207;29;20424;-75
2021/10/26 10:21:17;;;;;;;11.45;6.22;;;;;;;;;;4866146;29;20060;-70
2021/10/26 10:23:45;;;;;;;9.35;6.22;;;;;;;;;;4867676;29;20053;-71
2021/10/26 10:26:14;;;;;;;9.15;5.82;;;;;;;;;;4883339;29;20058;-71
2021/10/26 10:28:45;;;;;;;7.00;5.00;;;;;;;;;;4882158;29;20049;-68
2021/10/26 10:31:19;;;;;;;10.68;4.75;;;;;;;;;;4867769;29;20101;-66
2021/10/26 10:33:47;;;;;;;6.35;4.00;;;;;;;;;;4870657;29;20085;-66
2021/10/26 10:36:16;;;;;;;8.00;4.45;;;;;;;;;;4864418;29;20110;-66
2021/10/26 10:38:44;;;;;;;11.93;4.75;;;;;;;;;;4882939;29;20095;-65
2021/10/26 10:41:33;;;;;;;8.18;3.92;;;;;;;;;;4878138;29;20060;-65
2021/10/26 10:44:05;;;;;;;11.02;5.25;;;;;;;;;;4867146;29;20117;-66
2021/10/26 10:46:41;;;;;;;6.68;4.40;;;;;;;;;;4867018;29;20049;-67
2021/10/26 10:49:23;;;;;;;5.88;3.35;;;;;;;;;;4865110;29;20094;-67
2021/10/26 10:52:05;;;;;;;6.50;3.33;;;;;;;;;;4866457;29;20080;-66
2021/10/26 10:54:38;;;;;;;8.90;3.97;;;;;;;;;;4866411;29;20128;-66
2021/10/26 10:57:37;;;;;;;7.53;3.95;;;;;;;;;;4868663;29;20137;-66
2021/10/26 11:00:25;;;;;;;7.50;4.00;;;;;;;;;;4868648;29;20132;-66
2021/10/26 11:02:55;;;;;;;6.93;3.60;;;;;;;;;;4878327;29;20060;-66
2021/10/26 11:05:38;;;;;;;8.18;4.38;;;;;;;;;;4864367;29;20049;-66
2021/10/26 11:08:06;;;;;;;8.95;4.63;;;;;;;;;;4867679;29;20053;-67
2021/10/26 11:10:49;;;;;;;6.38;4.57;;;;;;;;;;4864635;29;20517;-67
2021/10/26 11:13:23;;;;;;;5.57;4.30;;;;;;;;;;4864537;29;20164;-67
2021/10/26 11:15:52;;;;;;;6.78;4.18;;;;;;;;;;4866773;29;20150;-66
2021/10/26 11:18:44;;;;;;;6.22;4.22;;;;;;;;;;4868233;29;20041;-67
2021/10/26 11:21:26;;;;;;;10.70;5.20;;;;;;;;;;4865565;29;20152;-66
2021/10/26 11:24:01;;;;;;;6.38;3.80;;;;;;;;;;4864845;29;20133;-67
2021/10/26 11:26:35;;;;;;;6.38;3.70;;;;;;;;;;4867483;29;20292;-67
2021/10/26 11:29:07;;;;;;;3.97;2.63;;;;;;;;;;4868278;29;20140;-67
2021/10/26 11:31:49;;;;;;;5.55;3.40;;;;;;;;;;4866619;29;20113;-65
2021/10/26 11:34:18;;;;;;;7.25;3.72;;;;;;;;;;4880788;29;20057;-67
2021/10/26 11:36:49;;;;;;;4.93;2.70;;;;;;;;;;4880577;29;20140;-65
2021/10/26 11:39:17;;;;;;;4.40;3.00;;;;;;;;;;4878798;29;20156;-67
2021/10/26 11:41:44;;;;;;;7.00;3.15;;;;;;;;;;4869259;29;20108;-67
2021/10/26 11:44:15;;;;;;;5.70;2.40;;;;;;;;;;4864363;29;20057;-66
2021/10/26 11:46:45;;;;;;;6.47;2.92;;;;;;;;;;4864823;29;20089;-67
2021/10/26 11:49:21;;;;;;;6.25;2.80;;;;;;;;;;4863504;29;20112;-66
2021/10/26 11:51:50;;;;;;;6.38;2.90;;;;;;;;;;4862296;29;20053;-67
2021/10/26 11:54:24;;;;;;;6.95;3.20;;;;;;;;;;4864479;29;20061;-67
2021/10/26 11:56:56;;;;;;;4.60;2.40;;;;;;;;;;4862373;29;20509;-66
2021/10/26 11:59:22;;;;;;;2.63;2.03;;;;;;;;;;4865949;29;20053;-67
2021/10/26 12:01:56;;;;;;;5.88;2.50;;;;;;;;;;4867227;29;20505;-66
2021/10/26 12:04:30;;;;;;;5.75;2.00;;;;;;;;;;4865419;29;20065;-67
2021/10/26 12:07:10;;;;;;;5.53;2.60;;;;;;;;;;4867908;29;20056;-67
2021/10/26 12:09:41;;;;;;;7.05;2.60;;;;;;;;;;4867576;29;20069;-67
2021/10/26 12:12:13;;;;;;;3.17;1.85;;;;;;;;;;4865172;29;20057;-67
2021/10/26 12:14:46;;;;;;;3.72;2.10;;;;;;;;;;4870940;29;20061;-66
2021/10/26 12:17:25;;;;;;;4.75;2.60;;;;;;;;;;4866134;29;20110;-66
2021/10/26 12:20:03;;;;;;;5.75;2.15;;;;;;;;;;4865501;29;20505;-66
2021/10/26 12:22:33;;;;;;;4.88;2.47;;;;;;;;;;4868482;29;20041;-67
2021/10/26 12:25:26;;;;;;;6.80;2.58;;;;;;;;;;4866351;29;20061;-66
2021/10/26 12:27:54;;;;;;;3.53;1.95;;;;;;;;;;4868077;29;20049;-70
2021/10/26 12:30:39;;;;;;;3.63;2.22;;;;;;;;;;4886263;29;20066;-73
2021/10/26 12:33:16;;;;;;;5.53;2.75;;;;;;;;;;4871031;29;20049;-71
2021/10/26 12:35:44;;;;;;;3.08;2.53;;;;;;;;;;4869125;29;20485;-72
2021/10/26 12:38:23;;;;;;;5.38;2.30;;;;;;;;;;4868462;29;20053;-72
2021/10/26 12:40:50;;;;;;;5.03;2.15;;;;;;;;;;4868776;29;20509;-75
2021/10/26 12:43:23;;;;;;;4.53;2.10;;;;;;;;;;4873197;29;20715;-68
2021/10/26 12:46:01;;;;;;;4.80;2.03;;;;;;;;;;4867391;29;20058;-67
2021/10/26 12:48:34;;;;;;;6.57;2.15;;;;;;;;;;4871823;29;20065;-69
2021/10/26 12:51:03;;;;;;;5.70;2.33;;;;;;;;;;4869762;29;20053;-69
2021/10/26 12:53:34;;;;;;;4.70;2.53;;;;;;;;;;4869777;29;20056;-72
2021/10/26 12:56:16;;;;;;;5.22;2.00;;;;;;;;;;4873979;29;20083;-72
2021/10/26 12:58:48;;;;;;;3.72;2.10;;;;;;;;;;4882394;29;20129;-72
2021/10/26 13:01:18;;;;;;;3.45;1.88;;;;;;;;;;4871935;29;20140;-66
2021/10/26 13:04:03;;;;;;;3.72;2.30;;;;;;;;;;4867890;29;20053;-72
2021/10/26 13:06:57;;;;;;;5.00;2.03;;;;;;;;;;4867377;29;20109;-74
2021/10/26 13:09:46;;;;;;;3.47;1.90;;;;;;;;;;4879877;29;20451;-72
2021/10/26 13:12:21;;;;;;;4.38;2.45;;;;;;;;;;4866417;29;20505;-74
2021/10/26 13:14:50;;;;;;;3.08;1.85;;;;;;;;;;4871701;29;20057;-75
2021/10/26 13:17:37;;;;;;;3.33;1.70;;;;;;;;;;4869778;29;20051;-73
2021/10/26 13:20:24;;;;;;;4.88;1.90;;;;;;;;;;4882005;29;20053;-73
2021/10/26 13:23:11;;;;;;;4.70;1.48;;;;;;;;;;4883386;29;20049;-68
2021/10/26 13:25:47;;;;;;;5.88;1.65;;;;;;;;;;4864829;29;20053;-69
2021/10/26 13:28:24;;;;;;;4.72;1.67;;;;;;;;;;4868871;29;20069;-66
2021/10/26 13:30:59;;;;;;;3.67;1.00;;;;;;;;;;4867900;29;20048;-68
2021/10/26 13:33:30;;;;;;;3.10;1.50;;;;;;;;;;4866012;29;20109;-69
2021/10/26 13:35:57;;;;;;;2.25;1.20;;;;;;;;;;4867799;29;20101;-68
2021/10/26 13:38:25;;;;;;;2.78;1.23;;;;;;;;;;4868014;29;20053;-69
2021/10/26 13:40:52;;;;;;;2.45;1.35;;;;;;;;;;4872141;29;20575;-70
2021/10/26 13:43:20;;;;;;;2.17;1.48;;;;;;;;;;4869179;29;20116;-69
2021/10/26 13:45:47;;;;;;;6.60;1.92;;;;;;;;;;4866565;29;20137;-70
2021/10/26 13:48:15;;;;;;;6.25;1.60;;;;;;;;;;4867202;29;20076;-67
2021/10/26 13:50:43;;;;;;;3.20;1.30;;;;;;;;;;4865865;29;20087;-71
2021/10/26 13:53:10;;;;;;;7.82;1.80;;;;;;;;;;4870386;29;20053;-69
2021/10/26 13:55:38;;;;;;;4.05;1.15;;;;;;;;;;4865476;29;20101;-72
2021/10/26 13:58:05;;;;;;;3.10;1.30;;;;;;;;;;4867923;29;20049;-71
2021/10/26 14:00:35;;;;;;;1.95;1.10;;;;;;;;;;4866071;29;20052;-70
2021/10/26 14:03:02;;;;;;;2.13;0.90;;;;;;;;;;4869139;29;20081;-70
2021/10/26 14:05:29;;;;;;;2.95;1.08;;;;;;;;;;4867568;29;20057;-70
2021/10/26 14:07:57;;;;;;;3.72;1.20;;;;;;;;;;4867152;29;20505;-69
2021/10/26 14:10:24;;;;;;;4.75;1.10;;;;;;;;;;4866208;29;20465;-69
2021/10/26 14:12:51;;;;;;;1.92;1.10;;;;;;;;;;4865457;29;20117;-69
2021/10/26 14:15:18;;;;;;;4.70;1.65;;;;;;;;;;4866635;29;20053;-67
2021/10/26 14:17:44;;;;;;;5.13;1.80;;;;;;;;;;4865649;29;20498;-67
2021/10/26 14:20:18;;;;;;;8.35;1.60;;;;;;;;;;4870191;29;20057;-68
2021/10/26 14:22:46;;;;;;;3.33;1.55;;;;;;;;;;4868491;29;20057;-67
2021/10/26 14:25:14;;;;;;;3.20;1.38;;;;;;;;;;4869634;29;20172;-67
2021/10/26 14:27:41;;;;;;;3.75;1.20;;;;;;;;;;4868514;29;20109;-67
2021/10/26 14:30:08;;;;;;;1.85;1.40;;;;;;;;;;4867200;29;20053;-68
2021/10/26 14:32:35;;;;;;;5.65;1.63;;;;;;;;;;4865213;29;20088;-68
2021/10/26 14:35:07;;;;;;;3.33;1.20;;;;;;;;;;4866253;29;20057;-68
2021/10/26 14:37:48;;;;;;;1.10;0.98;;;;;;;;;;4866419;29;20045;-67
2021/10/26 14:40:38;;;;;;;4.60;1.27;;;;;;;;;;4865381;29;20061;-68
2021/10/26 14:54:44;;;;;;;4.43;1.50;;;;;;;;;;4817780;29;20090;-68
2021/10/26 14:57:11;;;;;;;4.68;1.48;;;;;;;;;;4817729;29;20635;-68
2021/10/26 14:59:38;;;;;;;2.90;1.10;;;;;;;;;;4843210;29;20125;-68
2021/10/26 15:02:06;;;;;;;3.30;1.35;;;;;;;;;;4867594;29;20049;-68
2021/10/26 15:04:33;;;;;;;3.42;1.23;;;;;;;;;;4864742;29;20193;-68
2021/10/26 15:07:00;;;;;;;2.75;1.30;;;;;;;;;;4869662;29;20601;-68
2021/10/26 15:09:39;;;;;;;2.83;1.48;;;;;;;;;;4864141;29;20045;-68
2021/10/26 15:12:14;;;;;;;2.47;1.23;;;;;;;;;;4866122;29;20061;-68